createdAt,value
2019-01-11T00:01:37.668Z,5.33
2019-01-11T00:04:05.532Z,5.43
2019-01-11T00:06:33.639Z,5.37
2019-01-11T00:09:01.608Z,5.30
2019-01-11T00:11:29.599Z,4.87
2019-01-11T00:13:57.529Z,5.43
2019-01-11T00:16:25.548Z,15.17
2019-01-11T00:18:53.526Z,5.67
2019-01-11T00:21:21.450Z,5.63
2019-01-11T00:23:49.626Z,6.90
2019-01-11T00:26:17.650Z,5.80
2019-01-11T00:28:45.696Z,5.37
2019-01-11T00:31:13.603Z,5.13
2019-01-11T00:33:41.781Z,5.13
2019-01-11T00:36:09.785Z,5.13
2019-01-11T00:38:37.837Z,5.07
2019-01-11T00:41:06.092Z,5.10
2019-01-11T00:43:36.485Z,4.67
2019-01-11T00:46:04.475Z,5.00
2019-01-11T00:48:32.386Z,4.80
2019-01-11T00:51:00.157Z,5.00
2019-01-11T00:53:27.940Z,5.13
2019-01-11T00:55:55.717Z,5.37
2019-01-11T00:58:23.612Z,4.90
2019-01-11T01:00:51.400Z,5.30
2019-01-11T01:03:19.290Z,5.03
2019-01-11T01:05:48.151Z,5.93
2019-01-11T01:08:16.093Z,6.87
2019-01-11T01:10:43.924Z,7.87
2019-01-11T01:13:11.834Z,7.67
2019-01-11T01:15:39.596Z,7.50
2019-01-11T01:18:07.631Z,7.00
2019-01-11T01:20:35.790Z,7.47
2019-01-11T01:23:03.762Z,6.50
2019-01-11T01:25:31.522Z,7.33
2019-01-11T01:27:59.258Z,6.50
2019-01-11T01:30:27.002Z,6.17
2019-01-11T01:32:54.921Z,6.13
2019-01-11T01:35:22.674Z,6.10
2019-01-11T01:37:50.624Z,6.00
2019-01-11T01:40:18.392Z,5.80
2019-01-11T01:42:46.109Z,5.90
2019-01-11T01:45:15.479Z,5.87
2019-01-11T01:47:43.921Z,6.17
2019-01-11T01:50:12.976Z,5.77
2019-01-11T01:52:40.826Z,5.83
2019-01-11T01:55:09.579Z,5.10
2019-01-11T01:57:37.313Z,5.57
2019-01-11T02:00:08.729Z,5.73
2019-01-11T02:02:36.819Z,5.60
2019-01-11T02:05:06.407Z,5.50
2019-01-11T02:07:34.177Z,6.17
2019-01-11T02:10:02.452Z,6.27
2019-01-11T02:12:30.371Z,6.37
2019-01-11T02:14:58.103Z,6.63
2019-01-11T02:17:25.859Z,6.30
2019-01-11T02:19:53.657Z,6.27
2019-01-11T02:22:21.413Z,6.57
2019-01-11T02:24:49.359Z,6.53
2019-01-11T02:27:17.119Z,6.63
2019-01-11T02:29:45.026Z,7.07
2019-01-11T02:32:12.812Z,7.60
2019-01-11T02:34:40.770Z,6.60
2019-01-11T02:37:08.525Z,6.83
2019-01-11T02:39:36.467Z,7.90
2019-01-11T02:42:04.331Z,7.70
2019-01-11T02:44:32.660Z,7.57
2019-01-11T02:47:01.806Z,6.70
2019-01-11T02:49:30.673Z,7.47
2019-01-11T02:51:58.435Z,7.10
2019-01-11T02:54:26.170Z,8.17
2019-01-11T02:56:54.063Z,8.00
2019-01-11T02:59:21.976Z,7.50
2019-01-11T03:01:49.723Z,7.70
2019-01-11T03:04:17.862Z,8.37
2019-01-11T03:06:45.650Z,7.77
2019-01-11T03:09:13.585Z,8.60
2019-01-11T03:11:41.364Z,8.37
2019-01-11T03:14:09.109Z,8.80
2019-01-11T03:16:36.985Z,7.60
2019-01-11T03:19:04.767Z,8.60
2019-01-11T03:21:32.514Z,8.73
2019-01-11T03:24:00.289Z,8.47
2019-01-11T03:26:28.188Z,8.80
2019-01-11T03:28:56.104Z,8.70
2019-01-11T03:31:49.316Z,8.67
2019-01-11T03:34:17.319Z,8.57
2019-01-11T03:36:45.072Z,8.67
2019-01-11T03:39:13.196Z,8.63
2019-01-11T03:42:06.743Z,9.30
2019-01-11T03:44:34.627Z,9.47
2019-01-11T03:47:02.587Z,8.97
2019-01-11T03:49:30.486Z,9.33
2019-01-11T03:51:58.463Z,9.37
2019-01-11T03:54:26.182Z,10.53
2019-01-11T03:56:54.143Z,10.30
2019-01-11T03:59:22.020Z,9.30
2019-01-11T04:01:49.930Z,10.27
2019-01-11T04:04:17.882Z,10.67
2019-01-11T04:06:45.626Z,10.17
2019-01-11T04:09:13.394Z,10.73
2019-01-11T04:11:41.356Z,11.03
2019-01-11T04:14:09.132Z,11.60
2019-01-11T04:16:37.058Z,10.80
2019-01-11T04:19:08.070Z,10.57
2019-01-11T04:21:35.812Z,10.30
2019-01-11T04:24:03.547Z,11.70
2019-01-11T04:26:31.683Z,11.47
2019-01-11T04:28:59.631Z,12.30
2019-01-11T04:31:27.433Z,11.80
2019-01-11T04:33:57.944Z,12.40
2019-01-11T04:36:25.943Z,12.00
2019-01-11T04:38:53.791Z,11.53
2019-01-11T04:41:21.619Z,12.83
2019-01-11T04:43:49.504Z,12.13
2019-01-11T04:46:17.385Z,12.57
2019-01-11T04:48:45.557Z,12.90
2019-01-11T04:51:13.347Z,13.07
2019-01-11T04:53:41.264Z,11.87
2019-01-11T04:56:09.076Z,12.77
2019-01-11T04:58:37.026Z,13.57
2019-01-11T05:01:05.032Z,13.13
2019-01-11T05:03:32.952Z,14.13
2019-01-11T05:06:00.689Z,13.50
2019-01-11T05:08:28.614Z,13.43
2019-01-11T05:10:56.517Z,13.43
2019-01-11T05:13:35.673Z,13.80
2019-01-11T05:16:03.614Z,13.93
2019-01-11T05:18:31.613Z,14.77
2019-01-11T05:20:59.459Z,15.00
2019-01-11T05:23:27.371Z,14.53
2019-01-11T05:25:56.320Z,13.73
2019-01-11T05:28:24.662Z,14.27
2019-01-11T05:30:52.650Z,14.50
2019-01-11T05:33:21.836Z,14.60
2019-01-11T05:35:49.766Z,13.83
2019-01-11T05:38:17.784Z,14.60
2019-01-11T05:40:45.717Z,15.43
2019-01-11T05:43:13.436Z,13.97
2019-01-11T05:45:41.358Z,14.00
2019-01-11T05:48:10.314Z,13.90
2019-01-11T05:50:38.075Z,13.93
2019-01-11T05:53:06.244Z,14.23
2019-01-11T05:55:44.202Z,14.63
2019-01-11T05:58:37.893Z,14.60
2019-01-11T06:01:06.047Z,13.37
2019-01-11T06:03:33.989Z,14.70
2019-01-11T06:06:01.903Z,15.80
2019-01-11T06:08:30.661Z,13.53
2019-01-11T06:10:58.425Z,14.60
2019-01-11T06:13:26.168Z,14.43
2019-01-11T06:15:53.930Z,14.50
2019-01-11T06:18:22.203Z,14.87
2019-01-11T06:20:50.053Z,15.30
2019-01-11T06:23:17.998Z,15.37
2019-01-11T06:25:45.772Z,15.47
2019-01-11T06:28:13.544Z,15.00
2019-01-11T06:30:41.270Z,21.00
2019-01-11T06:33:09.018Z,17.23
2019-01-11T06:35:36.964Z,16.83
2019-01-11T06:38:04.715Z,15.53
2019-01-11T06:40:32.623Z,15.17
2019-01-11T06:43:03.673Z,15.57
2019-01-11T06:45:30.210Z,15.30
2019-01-11T06:47:58.169Z,15.07
2019-01-11T06:50:25.951Z,14.07
2019-01-11T06:52:53.893Z,15.17
2019-01-11T06:55:21.665Z,14.80
2019-01-11T06:57:49.465Z,14.10
2019-01-11T07:00:17.417Z,16.17
2019-01-11T07:02:45.493Z,13.60
2019-01-11T07:05:14.038Z,13.93
2019-01-11T07:07:42.483Z,14.47
2019-01-11T07:10:14.841Z,14.20
2019-01-11T07:12:42.794Z,14.43
2019-01-11T07:15:11.039Z,13.43
2019-01-11T07:17:38.824Z,13.20
2019-01-11T07:20:08.174Z,13.13
2019-01-11T07:22:40.541Z,13.30
2019-01-11T07:25:08.982Z,14.03
2019-01-11T07:27:42.026Z,13.60
2019-01-11T07:30:10.812Z,13.97
2019-01-11T07:32:38.592Z,13.73
2019-01-11T07:35:06.748Z,13.87
2019-01-11T07:37:34.718Z,14.17
2019-01-11T07:40:03.311Z,13.90
2019-01-11T07:42:31.281Z,13.13
2019-01-11T07:44:59.108Z,14.13
2019-01-11T07:47:26.872Z,14.10
2019-01-11T07:49:54.638Z,13.10
2019-01-11T07:52:22.436Z,13.60
2019-01-11T07:54:50.373Z,13.27
2019-01-11T07:57:18.167Z,13.70
2019-01-11T07:59:46.266Z,12.93
2019-01-11T08:02:14.101Z,12.80
2019-01-11T08:04:42.013Z,12.83
2019-01-11T08:07:10.111Z,11.73
2019-01-11T08:09:37.876Z,11.93
2019-01-11T08:12:05.648Z,11.40
2019-01-11T08:14:33.411Z,11.07
2019-01-11T08:17:01.169Z,11.30
2019-01-11T08:19:28.911Z,11.57
2019-01-11T08:21:56.651Z,11.80
2019-01-11T08:24:24.645Z,11.00
2019-01-11T08:26:52.891Z,10.47
2019-01-11T08:29:21.004Z,11.40
2019-01-11T08:31:48.740Z,9.27
2019-01-11T08:34:16.499Z,10.90
2019-01-11T08:36:44.251Z,10.67
2019-01-11T08:39:12.028Z,9.33
2019-01-11T08:41:39.775Z,9.00
2019-01-11T08:44:07.640Z,9.80
2019-01-11T08:46:35.446Z,9.80
2019-01-11T08:49:03.215Z,9.43
2019-01-11T08:51:31.035Z,9.43
2019-01-11T08:53:58.787Z,9.77
2019-01-11T08:56:26.525Z,9.63
2019-01-11T08:58:54.325Z,9.67
2019-01-11T09:01:22.111Z,9.30
2019-01-11T09:03:50.063Z,9.67
2019-01-11T09:06:19.828Z,8.87
2019-01-11T09:08:48.189Z,10.57
2019-01-11T09:11:16.446Z,9.43
2019-01-11T09:13:44.415Z,9.40
2019-01-11T09:16:12.179Z,8.87
2019-01-11T09:18:45.327Z,9.47
2019-01-11T09:21:13.308Z,10.43
2019-01-11T09:23:41.405Z,8.33
2019-01-11T09:26:10.028Z,9.33
2019-01-11T09:28:37.790Z,9.63
2019-01-11T09:31:05.774Z,8.57
2019-01-11T09:33:33.502Z,8.87
2019-01-11T09:36:01.256Z,8.60
2019-01-11T09:38:29.026Z,8.80
2019-01-11T09:40:56.988Z,8.53
2019-01-11T09:43:25.828Z,8.73
2019-01-11T09:45:53.702Z,7.57
2019-01-11T09:48:21.416Z,8.03
2019-01-11T09:50:49.216Z,8.23
2019-01-11T09:53:16.973Z,8.17
2019-01-11T09:55:44.949Z,7.93
2019-01-11T09:58:12.731Z,8.40
2019-01-11T10:00:40.828Z,7.40
2019-01-11T10:03:10.157Z,7.50
2019-01-11T10:05:38.123Z,7.73
2019-01-11T10:08:06.071Z,7.80
2019-01-11T10:10:33.830Z,7.97
2019-01-11T10:13:01.582Z,7.97
2019-01-11T10:15:29.499Z,7.77
2019-01-11T10:17:58.102Z,7.87
2019-01-11T10:20:26.068Z,8.20
2019-01-11T10:22:53.894Z,7.47
2019-01-11T10:25:21.713Z,7.87
2019-01-11T10:27:49.553Z,7.53
2019-01-11T10:30:18.838Z,7.70
2019-01-11T10:32:46.743Z,7.77
2019-01-11T10:35:14.643Z,7.30
2019-01-11T10:37:42.532Z,6.87
2019-01-11T10:40:12.866Z,8.20
2019-01-11T10:42:41.098Z,7.40
2019-01-11T10:45:13.393Z,7.30
2019-01-11T10:47:41.297Z,7.37
2019-01-11T10:50:12.697Z,7.60
2019-01-11T10:52:40.726Z,7.70
2019-01-11T10:55:10.154Z,7.53
2019-01-11T10:57:37.921Z,7.50
2019-01-11T11:00:14.449Z,7.73
2019-01-11T11:02:42.249Z,7.30
2019-01-11T11:05:10.131Z,7.60
2019-01-11T11:07:38.095Z,7.47
2019-01-11T11:10:07.496Z,7.27
2019-01-11T11:12:35.435Z,7.57
2019-01-11T11:15:05.111Z,7.23
2019-01-11T11:17:34.369Z,6.60
2019-01-11T11:20:02.561Z,7.17
2019-01-11T11:22:30.335Z,7.73
2019-01-11T11:24:58.349Z,7.40
2019-01-11T11:27:26.325Z,8.17
2019-01-11T11:29:54.083Z,7.60
2019-01-11T11:32:30.439Z,7.73
2019-01-11T11:34:58.179Z,7.70
2019-01-11T11:37:28.016Z,7.47
2019-01-11T11:39:55.815Z,8.67
2019-01-11T11:42:23.690Z,8.60
2019-01-11T11:44:51.474Z,8.07
2019-01-11T11:47:19.259Z,8.20
2019-01-11T11:49:47.021Z,8.73
2019-01-11T11:52:16.116Z,8.00
2019-01-11T11:54:44.070Z,7.63
2019-01-11T11:57:12.042Z,8.30
2019-01-11T11:59:40.540Z,8.83
2019-01-11T12:02:08.488Z,8.97
2019-01-11T12:04:36.224Z,8.90
2019-01-11T12:07:07.633Z,8.87
2019-01-11T12:09:34.260Z,8.90
2019-01-11T12:12:14.465Z,8.83
2019-01-11T12:14:42.294Z,8.90
2019-01-11T12:17:10.256Z,10.07
2019-01-11T12:19:38.023Z,9.47
2019-01-11T12:22:05.815Z,9.23
2019-01-11T12:24:33.620Z,9.07
2019-01-11T12:27:01.387Z,9.33
2019-01-11T12:29:29.411Z,8.77
2019-01-11T12:31:57.221Z,9.83
2019-01-11T12:34:25.021Z,10.73
2019-01-11T12:36:52.768Z,10.20
2019-01-11T12:39:20.575Z,10.50
2019-01-11T12:41:48.324Z,9.93
2019-01-11T12:44:16.082Z,10.03
2019-01-11T12:46:43.856Z,10.97
2019-01-11T12:49:11.649Z,10.03
2019-01-11T12:51:39.403Z,10.60
2019-01-11T12:54:07.291Z,10.57
2019-01-11T12:56:35.203Z,10.90
2019-01-11T12:59:03.003Z,10.13
2019-01-11T13:01:30.823Z,9.87
2019-01-11T13:03:58.625Z,10.47
2019-01-11T13:06:27.476Z,10.57
2019-01-11T13:08:55.244Z,10.93
2019-01-11T13:11:23.017Z,10.20
2019-01-11T13:13:50.764Z,12.33
2019-01-11T13:16:18.571Z,12.03
2019-01-11T13:18:46.316Z,13.03
2019-01-11T13:21:14.355Z,11.60
2019-01-11T13:23:42.227Z,11.40
2019-01-11T13:26:13.022Z,12.30
2019-01-11T13:28:41.006Z,11.67
2019-01-11T13:31:08.758Z,11.33
2019-01-11T13:33:36.503Z,11.83
2019-01-11T13:36:09.992Z,11.30
2019-01-11T13:38:38.204Z,12.20
2019-01-11T13:41:05.923Z,11.57
2019-01-11T13:43:33.755Z,11.60
2019-01-11T13:46:01.686Z,11.60
2019-01-11T13:48:29.553Z,11.87
2019-01-11T13:51:00.352Z,12.37
2019-01-11T13:53:28.084Z,11.17
2019-01-11T13:55:55.876Z,11.90
2019-01-11T13:58:23.836Z,12.67
2019-01-11T14:00:51.652Z,11.37
2019-01-11T14:03:19.403Z,11.03
2019-01-11T14:05:47.186Z,11.77
2019-01-11T14:08:14.978Z,12.17
2019-01-11T14:10:42.741Z,11.80
2019-01-11T14:13:10.512Z,11.63
2019-01-11T14:15:38.333Z,11.57
2019-01-11T14:18:06.775Z,12.47
2019-01-11T14:20:34.700Z,11.60
2019-01-11T14:23:02.591Z,12.50
2019-01-11T14:25:30.381Z,12.67
2019-01-11T14:27:58.159Z,12.43
2019-01-11T14:30:25.888Z,12.40
2019-01-11T14:32:53.633Z,12.23
2019-01-11T14:35:21.397Z,11.97
2019-01-11T14:37:49.207Z,12.07
2019-01-11T14:40:17.267Z,12.67
2019-01-11T14:42:45.036Z,12.30
2019-01-11T14:45:14.761Z,12.00
2019-01-11T14:47:42.561Z,12.50
2019-01-11T14:50:13.556Z,11.87
2019-01-11T14:52:41.434Z,12.17
2019-01-11T14:55:09.798Z,11.87
2019-01-11T14:57:37.751Z,12.37
2019-01-11T15:00:09.840Z,11.17
2019-01-11T15:02:37.647Z,11.33
2019-01-11T15:05:07.650Z,11.30
2019-01-11T15:07:35.389Z,11.03
2019-01-11T15:10:04.319Z,11.13
2019-01-11T15:12:32.091Z,11.23
2019-01-11T15:14:59.957Z,10.93
2019-01-11T15:17:27.739Z,11.30
2019-01-11T15:19:55.514Z,11.43
2019-01-11T15:22:26.515Z,11.13
2019-01-11T15:24:52.972Z,10.70
2019-01-11T15:27:20.728Z,10.50
2019-01-11T15:29:48.647Z,10.53
2019-01-11T15:32:16.417Z,11.10
2019-01-11T15:34:44.306Z,10.17
2019-01-11T15:37:12.128Z,12.13
2019-01-11T15:39:41.927Z,11.70
2019-01-11T15:42:10.160Z,10.73
2019-01-11T15:44:38.244Z,10.03
2019-01-11T15:47:05.968Z,10.97
2019-01-11T15:49:33.839Z,10.03
2019-01-11T15:52:01.584Z,10.30
2019-01-11T15:54:29.364Z,10.53
2019-01-11T15:56:57.136Z,10.97
2019-01-11T15:59:24.889Z,9.87
2019-01-11T16:01:54.114Z,10.47
2019-01-11T16:04:21.888Z,9.80
2019-01-11T16:06:50.204Z,10.33
2019-01-11T16:09:58.855Z,11.70
2019-01-11T16:12:51.847Z,10.73
2019-01-11T16:16:01.133Z,11.03
2019-01-11T16:18:30.998Z,11.93
2019-01-11T16:20:58.959Z,11.37
2019-01-11T16:23:26.741Z,11.20
2019-01-11T16:25:54.659Z,12.30
2019-01-11T16:28:22.469Z,12.27
2019-01-11T16:30:50.248Z,11.80
2019-01-11T16:33:18.053Z,12.23
2019-01-11T16:35:45.830Z,12.40
2019-01-11T16:38:13.612Z,11.63
2019-01-11T16:40:41.365Z,11.67
2019-01-11T16:43:09.151Z,11.47
2019-01-11T16:45:36.883Z,12.00
2019-01-11T16:48:04.726Z,11.07
2019-01-11T16:50:32.535Z,10.90
2019-01-11T16:53:00.331Z,11.40
2019-01-11T16:55:28.115Z,10.20
2019-01-11T16:57:55.878Z,9.77
2019-01-11T17:00:23.635Z,10.83
2019-01-11T17:02:51.421Z,10.33
2019-01-11T17:05:20.469Z,10.90
2019-01-11T17:07:48.237Z,10.87
2019-01-11T17:10:15.966Z,10.20
2019-01-11T17:12:43.782Z,10.90
2019-01-11T17:15:14.579Z,11.40
2019-01-11T17:17:42.392Z,11.33
2019-01-11T17:20:16.138Z,12.43
2019-01-11T17:22:43.860Z,12.00
2019-01-11T17:25:11.770Z,12.03
2019-01-11T17:27:39.616Z,12.63
2019-01-11T17:30:13.442Z,12.43
2019-01-11T17:32:41.331Z,13.53
2019-01-11T17:35:09.524Z,12.97
2019-01-11T17:37:37.322Z,13.97
2019-01-11T17:40:06.219Z,14.27
2019-01-11T17:42:33.954Z,13.17
2019-01-11T17:45:01.736Z,13.03
2019-01-11T17:47:29.496Z,13.40
2019-01-11T17:50:01.037Z,12.93
2019-01-11T17:52:26.985Z,12.83
2019-01-11T17:54:54.794Z,12.50
2019-01-11T17:57:22.598Z,12.57
2019-01-11T17:59:50.362Z,13.07
2019-01-11T18:02:18.247Z,11.93
2019-01-11T18:04:46.027Z,12.10
2019-01-11T18:07:13.831Z,11.47
2019-01-11T18:09:41.640Z,11.53
2019-01-11T18:12:10.536Z,11.23
2019-01-11T18:14:38.358Z,12.20
2019-01-11T18:17:06.178Z,11.80
2019-01-11T18:19:33.983Z,11.23
2019-01-11T18:22:02.089Z,11.80
2019-01-11T18:24:30.922Z,12.73
2019-01-11T18:26:58.747Z,11.60
2019-01-11T18:29:27.610Z,11.57
2019-01-11T18:31:55.427Z,12.33
2019-01-11T18:34:23.183Z,12.67
2019-01-11T18:36:52.701Z,11.70
2019-01-11T18:39:20.478Z,10.97
2019-01-11T18:41:48.275Z,11.23
2019-01-11T18:44:16.020Z,10.53
2019-01-11T18:46:43.819Z,11.20
2019-01-11T18:49:11.562Z,10.60
2019-01-11T18:51:39.352Z,10.50
2019-01-11T18:54:07.374Z,10.10
2019-01-11T18:56:35.163Z,10.40
2019-01-11T18:59:02.998Z,9.97
2019-01-11T19:01:30.775Z,10.27
2019-01-11T19:03:58.555Z,10.43
2019-01-11T19:06:27.431Z,10.27
2019-01-11T19:08:55.195Z,9.97
2019-01-11T19:11:23.067Z,10.83
2019-01-11T19:13:50.854Z,10.90
2019-01-11T19:16:18.649Z,10.77
2019-01-11T19:18:47.246Z,10.63
2019-01-11T19:21:15.170Z,10.50
2019-01-11T19:23:42.962Z,9.77
2019-01-11T19:26:10.775Z,11.37
2019-01-11T19:28:38.845Z,10.23
2019-01-11T19:31:07.438Z,11.40
2019-01-11T19:33:35.220Z,10.77
2019-01-11T19:36:03.203Z,9.60
2019-01-11T19:38:30.982Z,9.07
2019-01-11T19:40:58.776Z,9.40
2019-01-11T19:43:26.554Z,8.90
2019-01-11T19:45:54.362Z,9.90
2019-01-11T19:48:22.141Z,8.97
2019-01-11T19:50:51.012Z,9.60
2019-01-11T19:53:20.006Z,8.97
2019-01-11T19:55:47.798Z,9.33
2019-01-11T19:58:15.632Z,9.53
2019-01-11T20:00:44.525Z,9.67
2019-01-11T20:03:12.360Z,8.90
2019-01-11T20:05:40.466Z,9.00
2019-01-11T20:08:09.554Z,9.13
2019-01-11T20:10:37.476Z,9.10
2019-01-11T20:13:05.362Z,8.40
2019-01-11T20:15:33.207Z,10.40
2019-01-11T20:18:01.445Z,8.13
2019-01-11T20:20:29.288Z,8.40
2019-01-11T20:23:02.145Z,8.57
2019-01-11T20:25:26.992Z,7.57
2019-01-11T20:27:58.005Z,7.53
2019-01-11T20:30:27.370Z,8.53
2019-01-11T20:32:55.225Z,7.67
2019-01-11T20:35:23.227Z,7.50
2019-01-11T20:37:51.707Z,7.53
2019-01-11T20:40:19.647Z,7.40
2019-01-11T20:42:48.253Z,7.37
2019-01-11T20:45:18.689Z,7.30
2019-01-11T20:47:46.527Z,7.27
2019-01-11T20:50:20.552Z,7.47
2019-01-11T20:52:48.342Z,7.10
2019-01-11T20:55:16.225Z,7.07
2019-01-11T20:57:44.589Z,7.30
2019-01-11T21:00:22.573Z,8.17
2019-01-11T21:02:50.533Z,8.60
2019-01-11T21:05:19.133Z,8.17
2019-01-11T21:07:46.973Z,8.07
2019-01-11T21:10:15.217Z,7.23
2019-01-11T21:12:43.000Z,7.33
2019-01-11T21:15:12.023Z,7.83
2019-01-11T21:17:39.865Z,8.03
2019-01-11T21:20:10.546Z,8.43
2019-01-11T21:22:38.438Z,7.93
2019-01-11T21:25:08.534Z,7.93
2019-01-11T21:27:37.271Z,7.67
2019-01-11T21:30:11.092Z,7.97
2019-01-11T21:32:38.831Z,7.37
2019-01-11T21:35:07.446Z,7.93
2019-01-11T21:37:35.207Z,7.37
2019-01-11T21:40:04.237Z,7.70
2019-01-11T21:42:32.001Z,7.33
2019-01-11T21:45:03.530Z,6.97
2019-01-11T21:47:31.338Z,7.60
2019-01-11T21:49:59.271Z,6.93
2019-01-11T21:52:27.048Z,8.10
2019-01-11T21:54:54.933Z,7.23
2019-01-11T21:57:22.827Z,7.57
2019-01-11T21:59:50.664Z,6.50
2019-01-11T22:02:18.373Z,7.27
2019-01-11T22:04:46.608Z,6.67
2019-01-11T22:07:14.577Z,6.97
2019-01-11T22:09:42.508Z,6.90
2019-01-11T22:12:10.344Z,6.77
2019-01-11T22:14:38.299Z,6.90
2019-01-11T22:17:06.285Z,6.47
2019-01-11T22:19:34.146Z,7.20
2019-01-11T22:22:02.122Z,5.90
2019-01-11T22:24:30.252Z,6.40
2019-01-11T22:26:58.013Z,6.20
2019-01-11T22:29:26.100Z,5.97
2019-01-11T22:31:54.032Z,7.30
2019-01-11T22:34:21.972Z,6.03
2019-01-11T22:36:49.780Z,6.27
2019-01-11T22:39:20.136Z,6.73
2019-01-11T22:41:47.981Z,5.90
2019-01-11T22:44:15.817Z,6.00
2019-01-11T22:46:43.733Z,6.77
2019-01-11T22:49:11.463Z,5.40
2019-01-11T22:51:39.274Z,5.60
2019-01-11T22:54:10.526Z,6.03
2019-01-11T22:56:36.740Z,5.57
2019-01-11T22:59:04.517Z,5.50
2019-01-11T23:01:57.637Z,5.67
2019-01-11T23:04:25.473Z,5.40
2019-01-11T23:07:32.845Z,5.13
2019-01-11T23:10:15.268Z,4.43
2019-01-11T23:13:00.961Z,4.97
2019-01-11T23:15:35.729Z,5.23
2019-01-11T23:18:11.221Z,4.83
2019-01-11T23:20:39.034Z,4.67
2019-01-11T23:23:06.809Z,4.63
2019-01-11T23:25:34.558Z,4.40
2019-01-11T23:28:02.306Z,3.97
2019-01-11T23:30:30.119Z,4.23
2019-01-11T23:32:58.240Z,3.80
2019-01-11T23:35:26.007Z,3.53
2019-01-11T23:37:53.750Z,3.77
2019-01-11T23:40:21.515Z,4.33
2019-01-11T23:42:49.313Z,3.40
2019-01-11T23:45:17.139Z,3.70
2019-01-11T23:47:44.869Z,3.80
2019-01-11T23:50:15.885Z,3.97
2019-01-11T23:52:43.984Z,3.57
2019-01-11T23:55:11.998Z,3.47
2019-01-11T23:57:39.766Z,4.10
